sensor_id;sensor_type;location;lat;lon;timestamp;P1;durP1;ratioP1;P2;durP2;ratioP2
11222;SDS011;5668;52.012;8.724;2023-07-24T00:01:57;2.15;;;1.95;;
11222;SDS011;5668;52.012;8.724;2023-07-24T00:04:24;1.80;;;1.70;;
11222;SDS011;5668;52.012;8.724;2023-07-24T00:06:52;1.80;;;1.70;;
11222;SDS011;5668;52.012;8.724;2023-07-24T00:09:20;2.17;;;1.98;;
11222;SDS011;5668;52.012;8.724;2023-07-24T00:11:47;2.13;;;1.92;;
11222;SDS011;5668;52.012;8.724;2023-07-24T00:14:14;2.33;;;1.90;;
11222;SDS011;5668;52.012;8.724;2023-07-24T00:16:42;2.08;;;1.85;;
11222;SDS011;5668;52.012;8.724;2023-07-24T00:19:09;2.03;;;1.90;;
11222;SDS011;5668;52.012;8.724;2023-07-24T00:21:36;2.03;;;1.80;;
11222;SDS011;5668;52.012;8.724;2023-07-24T00:24:05;2.70;;;2.10;;
11222;SDS011;5668;52.012;8.724;2023-07-24T00:26:32;2.20;;;2.00;;
11222;SDS011;5668;52.012;8.724;2023-07-24T00:29:00;2.13;;;1.77;;
11222;SDS011;5668;52.012;8.724;2023-07-24T00:31:27;2.08;;;1.90;;
11222;SDS011;5668;52.012;8.724;2023-07-24T00:33:54;2.38;;;2.17;;
11222;SDS011;5668;52.012;8.724;2023-07-24T00:36:21;2.08;;;1.90;;
11222;SDS011;5668;52.012;8.724;2023-07-24T00:38:48;2.10;;;1.90;;
11222;SDS011;5668;52.012;8.724;2023-07-24T00:41:17;5.95;;;1.98;;
11222;SDS011;5668;52.012;8.724;2023-07-24T00:43:44;3.05;;;2.30;;
11222;SDS011;5668;52.012;8.724;2023-07-24T00:46:11;3.25;;;1.80;;
11222;SDS011;5668;52.012;8.724;2023-07-24T00:48:39;2.83;;;2.15;;
11222;SDS011;5668;52.012;8.724;2023-07-24T00:51:07;3.13;;;1.95;;
11222;SDS011;5668;52.012;8.724;2023-07-24T00:53:34;2.30;;;2.10;;
11222;SDS011;5668;52.012;8.724;2023-07-24T00:56:01;2.63;;;2.08;;
11222;SDS011;5668;52.012;8.724;2023-07-24T00:58:30;2.13;;;2.00;;
11222;SDS011;5668;52.012;8.724;2023-07-24T01:00:59;2.17;;;1.98;;
11222;SDS011;5668;52.012;8.724;2023-07-24T01:03:27;1.80;;;1.70;;
11222;SDS011;5668;52.012;8.724;2023-07-24T01:06:00;2.30;;;2.10;;
11222;SDS011;5668;52.012;8.724;2023-07-24T01:08:28;1.98;;;1.77;;
11222;SDS011;5668;52.012;8.724;2023-07-24T01:10:55;2.03;;;1.90;;
11222;SDS011;5668;52.012;8.724;2023-07-24T01:13:39;2.17;;;1.98;;
11222;SDS011;5668;52.012;8.724;2023-07-24T01:16:12;3.25;;;2.13;;
11222;SDS011;5668;52.012;8.724;2023-07-24T01:18:44;2.08;;;1.90;;
11222;SDS011;5668;52.012;8.724;2023-07-24T01:21:13;1.80;;;1.70;;
11222;SDS011;5668;52.012;8.724;2023-07-24T01:23:51;3.15;;;1.92;;
11222;SDS011;5668;52.012;8.724;2023-07-24T01:26:26;2.50;;;2.10;;
11222;SDS011;5668;52.012;8.724;2023-07-24T01:28:53;2.10;;;1.90;;
11222;SDS011;5668;52.012;8.724;2023-07-24T01:31:21;2.10;;;1.90;;
11222;SDS011;5668;52.012;8.724;2023-07-24T01:33:48;2.00;;;1.80;;
11222;SDS011;5668;52.012;8.724;2023-07-24T01:36:15;2.95;;;1.75;;
11222;SDS011;5668;52.012;8.724;2023-07-24T01:38:44;2.15;;;2.03;;
11222;SDS011;5668;52.012;8.724;2023-07-24T01:41:13;2.42;;;2.10;;
11222;SDS011;5668;52.012;8.724;2023-07-24T01:43:42;2.17;;;1.98;;
11222;SDS011;5668;52.012;8.724;2023-07-24T01:46:10;3.55;;;1.98;;
11222;SDS011;5668;52.012;8.724;2023-07-24T01:48:37;2.45;;;2.25;;
11222;SDS011;5668;52.012;8.724;2023-07-24T01:51:04;2.30;;;2.10;;
11222;SDS011;5668;52.012;8.724;2023-07-24T01:53:31;2.40;;;1.83;;
11222;SDS011;5668;52.012;8.724;2023-07-24T01:55:58;3.63;;;2.20;;
11222;SDS011;5668;52.012;8.724;2023-07-24T01:58:26;4.70;;;1.88;;
11222;SDS011;5668;52.012;8.724;2023-07-24T02:00:55;2.50;;;2.30;;
11222;SDS011;5668;52.012;8.724;2023-07-24T02:03:23;3.13;;;2.10;;
11222;SDS011;5668;52.012;8.724;2023-07-24T02:05:50;2.95;;;2.17;;
11222;SDS011;5668;52.012;8.724;2023-07-24T02:08:17;2.33;;;2.13;;
11222;SDS011;5668;52.012;8.724;2023-07-24T02:10:47;2.40;;;2.20;;
11222;SDS011;5668;52.012;8.724;2023-07-24T02:13:15;2.67;;;2.30;;
11222;SDS011;5668;52.012;8.724;2023-07-24T02:15:43;5.72;;;2.42;;
11222;SDS011;5668;52.012;8.724;2023-07-24T02:18:11;2.63;;;2.00;;
11222;SDS011;5668;52.012;8.724;2023-07-24T02:20:38;2.72;;;2.13;;
11222;SDS011;5668;52.012;8.724;2023-07-24T02:23:06;3.95;;;2.17;;
11222;SDS011;5668;52.012;8.724;2023-07-24T02:25:35;2.65;;;2.05;;
11222;SDS011;5668;52.012;8.724;2023-07-24T02:28:02;3.13;;;2.20;;
11222;SDS011;5668;52.012;8.724;2023-07-24T02:30:30;3.65;;;2.40;;
11222;SDS011;5668;52.012;8.724;2023-07-24T02:32:57;4.15;;;2.30;;
11222;SDS011;5668;52.012;8.724;2023-07-24T02:35:25;2.30;;;2.10;;
11222;SDS011;5668;52.012;8.724;2023-07-24T02:37:52;3.47;;;2.20;;
11222;SDS011;5668;52.012;8.724;2023-07-24T02:40:20;3.00;;;2.30;;
11222;SDS011;5668;52.012;8.724;2023-07-24T02:42:48;3.45;;;1.98;;
11222;SDS011;5668;52.012;8.724;2023-07-24T02:45:15;2.90;;;2.30;;
11222;SDS011;5668;52.012;8.724;2023-07-24T02:47:42;2.72;;;2.30;;
11222;SDS011;5668;52.012;8.724;2023-07-24T02:50:11;2.90;;;2.38;;
11222;SDS011;5668;52.012;8.724;2023-07-24T02:52:40;2.47;;;2.28;;
11222;SDS011;5668;52.012;8.724;2023-07-24T02:55:08;2.83;;;2.63;;
11222;SDS011;5668;52.012;8.724;2023-07-24T02:57:35;5.05;;;2.60;;
11222;SDS011;5668;52.012;8.724;2023-07-24T03:00:02;4.80;;;2.38;;
11222;SDS011;5668;52.012;8.724;2023-07-24T03:02:28;2.42;;;2.22;;
11222;SDS011;5668;52.012;8.724;2023-07-24T03:04:56;4.95;;;2.42;;
11222;SDS011;5668;52.012;8.724;2023-07-24T03:07:23;4.40;;;2.50;;
11222;SDS011;5668;52.012;8.724;2023-07-24T03:09:52;3.25;;;2.25;;
11222;SDS011;5668;52.012;8.724;2023-07-24T03:12:19;3.28;;;2.42;;
11222;SDS011;5668;52.012;8.724;2023-07-24T03:14:46;4.53;;;2.30;;
11222;SDS011;5668;52.012;8.724;2023-07-24T03:17:13;4.75;;;2.67;;
11222;SDS011;5668;52.012;8.724;2023-07-24T03:19:41;2.50;;;2.30;;
11222;SDS011;5668;52.012;8.724;2023-07-24T03:22:08;2.53;;;2.33;;
11222;SDS011;5668;52.012;8.724;2023-07-24T03:24:35;5.03;;;2.67;;
11222;SDS011;5668;52.012;8.724;2023-07-24T03:27:04;3.53;;;2.70;;
11222;SDS011;5668;52.012;8.724;2023-07-24T03:29:31;4.45;;;2.70;;
11222;SDS011;5668;52.012;8.724;2023-07-24T03:31:59;4.47;;;2.70;;
11222;SDS011;5668;52.012;8.724;2023-07-24T03:34:26;3.75;;;2.50;;
11222;SDS011;5668;52.012;8.724;2023-07-24T03:36:53;4.57;;;2.72;;
11222;SDS011;5668;52.012;8.724;2023-07-24T03:39:20;2.92;;;2.40;;
11222;SDS011;5668;52.012;8.724;2023-07-24T03:41:47;2.92;;;2.20;;
11222;SDS011;5668;52.012;8.724;2023-07-24T03:44:16;3.05;;;2.33;;
11222;SDS011;5668;52.012;8.724;2023-07-24T03:46:43;2.30;;;2.10;;
11222;SDS011;5668;52.012;8.724;2023-07-24T03:49:10;2.60;;;2.35;;
11222;SDS011;5668;52.012;8.724;2023-07-24T03:51:37;2.33;;;2.13;;
11222;SDS011;5668;52.012;8.724;2023-07-24T03:54:05;2.75;;;2.20;;
11222;SDS011;5668;52.012;8.724;2023-07-24T03:56:32;2.50;;;2.30;;
11222;SDS011;5668;52.012;8.724;2023-07-24T03:58:59;2.45;;;2.20;;
11222;SDS011;5668;52.012;8.724;2023-07-24T04:01:28;2.80;;;2.53;;
11222;SDS011;5668;52.012;8.724;2023-07-24T04:03:55;3.25;;;2.33;;
11222;SDS011;5668;52.012;8.724;2023-07-24T04:06:22;3.03;;;2.72;;
11222;SDS011;5668;52.012;8.724;2023-07-24T04:08:50;3.75;;;2.60;;
11222;SDS011;5668;52.012;8.724;2023-07-24T04:11:17;3.13;;;2.47;;
11222;SDS011;5668;52.012;8.724;2023-07-24T04:13:44;2.60;;;2.40;;
11222;SDS011;5668;52.012;8.724;2023-07-24T04:16:11;2.38;;;2.17;;
11222;SDS011;5668;52.012;8.724;2023-07-24T04:18:40;5.65;;;2.35;;
11222;SDS011;5668;52.012;8.724;2023-07-24T04:21:07;3.65;;;2.20;;
11222;SDS011;5668;52.012;8.724;2023-07-24T04:23:34;3.72;;;2.20;;
11222;SDS011;5668;52.012;8.724;2023-07-24T04:26:01;2.78;;;2.42;;
11222;SDS011;5668;52.012;8.724;2023-07-24T04:28:29;3.92;;;2.78;;
11222;SDS011;5668;52.012;8.724;2023-07-24T04:30:59;3.38;;;2.78;;
11222;SDS011;5668;52.012;8.724;2023-07-24T04:33:27;3.15;;;2.85;;
11222;SDS011;5668;52.012;8.724;2023-07-24T04:35:55;2.78;;;2.58;;
11222;SDS011;5668;52.012;8.724;2023-07-24T04:38:23;4.68;;;2.58;;
11222;SDS011;5668;52.012;8.724;2023-07-24T04:40:50;4.45;;;2.35;;
11222;SDS011;5668;52.012;8.724;2023-07-24T04:43:17;2.67;;;2.25;;
11222;SDS011;5668;52.012;8.724;2023-07-24T04:45:44;7.13;;;3.10;;
11222;SDS011;5668;52.012;8.724;2023-07-24T04:48:12;3.60;;;2.60;;
11222;SDS011;5668;52.012;8.724;2023-07-24T04:50:39;3.17;;;2.50;;
11222;SDS011;5668;52.012;8.724;2023-07-24T04:53:07;2.90;;;2.60;;
11222;SDS011;5668;52.012;8.724;2023-07-24T04:55:34;2.97;;;2.67;;
11222;SDS011;5668;52.012;8.724;2023-07-24T04:58:02;2.67;;;2.47;;
11222;SDS011;5668;52.012;8.724;2023-07-24T05:00:29;4.25;;;2.70;;
11222;SDS011;5668;52.012;8.724;2023-07-24T05:02:56;3.35;;;2.75;;
11222;SDS011;5668;52.012;8.724;2023-07-24T05:05:23;3.50;;;2.42;;
11222;SDS011;5668;52.012;8.724;2023-07-24T05:07:50;3.30;;;2.30;;
11222;SDS011;5668;52.012;8.724;2023-07-24T05:10:19;4.82;;;2.88;;
11222;SDS011;5668;52.012;8.724;2023-07-24T05:12:47;3.13;;;2.83;;
11222;SDS011;5668;52.012;8.724;2023-07-24T05:15:14;4.20;;;2.75;;
11222;SDS011;5668;52.012;8.724;2023-07-24T05:17:42;4.15;;;2.70;;
11222;SDS011;5668;52.012;8.724;2023-07-24T05:20:10;3.63;;;2.95;;
11222;SDS011;5668;52.012;8.724;2023-07-24T05:22:38;3.50;;;2.70;;
11222;SDS011;5668;52.012;8.724;2023-07-24T05:25:06;3.78;;;2.95;;
11222;SDS011;5668;52.012;8.724;2023-07-24T05:27:35;3.95;;;3.08;;
11222;SDS011;5668;52.012;8.724;2023-07-24T05:30:03;3.42;;;2.60;;
11222;SDS011;5668;52.012;8.724;2023-07-24T05:32:31;3.45;;;3.15;;
11222;SDS011;5668;52.012;8.724;2023-07-24T05:34:58;6.05;;;3.13;;
11222;SDS011;5668;52.012;8.724;2023-07-24T05:37:25;5.47;;;3.10;;
11222;SDS011;5668;52.012;8.724;2023-07-24T05:39:52;3.90;;;2.90;;
11222;SDS011;5668;52.012;8.724;2023-07-24T05:42:19;4.30;;;3.15;;
11222;SDS011;5668;52.012;8.724;2023-07-24T05:44:48;3.72;;;3.10;;
11222;SDS011;5668;52.012;8.724;2023-07-24T05:47:15;5.72;;;3.00;;
11222;SDS011;5668;52.012;8.724;2023-07-24T05:49:42;3.28;;;2.97;;
11222;SDS011;5668;52.012;8.724;2023-07-24T05:52:10;7.45;;;3.65;;
11222;SDS011;5668;52.012;8.724;2023-07-24T05:54:37;5.78;;;3.15;;
11222;SDS011;5668;52.012;8.724;2023-07-24T05:57:04;3.03;;;2.72;;
11222;SDS011;5668;52.012;8.724;2023-07-24T05:59:32;6.25;;;3.13;;
11222;SDS011;5668;52.012;8.724;2023-07-24T06:02:00;3.50;;;3.20;;
11222;SDS011;5668;52.012;8.724;2023-07-24T06:04:27;3.35;;;3.05;;
11222;SDS011;5668;52.012;8.724;2023-07-24T06:06:55;5.10;;;3.28;;
11222;SDS011;5668;52.012;8.724;2023-07-24T06:09:22;3.70;;;3.15;;
11222;SDS011;5668;52.012;8.724;2023-07-24T06:11:49;5.07;;;2.95;;
11222;SDS011;5668;52.012;8.724;2023-07-24T06:14:16;5.18;;;3.10;;
11222;SDS011;5668;52.012;8.724;2023-07-24T06:16:43;5.15;;;3.58;;
11222;SDS011;5668;52.012;8.724;2023-07-24T06:19:12;3.25;;;2.80;;
11222;SDS011;5668;52.012;8.724;2023-07-24T06:21:40;4.40;;;3.53;;
11222;SDS011;5668;52.012;8.724;2023-07-24T06:24:07;5.85;;;3.75;;
11222;SDS011;5668;52.012;8.724;2023-07-24T06:26:37;6.20;;;3.72;;
11222;SDS011;5668;52.012;8.724;2023-07-24T06:29:04;5.80;;;3.58;;
11222;SDS011;5668;52.012;8.724;2023-07-24T06:31:31;7.22;;;3.53;;
11222;SDS011;5668;52.012;8.724;2023-07-24T06:33:58;5.50;;;3.38;;
11222;SDS011;5668;52.012;8.724;2023-07-24T06:36:27;5.25;;;3.13;;
11222;SDS011;5668;52.012;8.724;2023-07-24T06:38:54;4.40;;;3.47;;
11222;SDS011;5668;52.012;8.724;2023-07-24T06:41:21;4.15;;;2.92;;
11222;SDS011;5668;52.012;8.724;2023-07-24T06:43:50;4.30;;;3.15;;
11222;SDS011;5668;52.012;8.724;2023-07-24T06:46:17;4.28;;;3.45;;
11222;SDS011;5668;52.012;8.724;2023-07-24T06:48:44;4.60;;;3.47;;
11222;SDS011;5668;52.012;8.724;2023-07-24T06:51:11;4.88;;;3.20;;
11222;SDS011;5668;52.012;8.724;2023-07-24T06:53:40;3.80;;;3.50;;
11222;SDS011;5668;52.012;8.724;2023-07-24T06:56:07;4.22;;;3.35;;
11222;SDS011;5668;52.012;8.724;2023-07-24T06:58:34;3.88;;;3.58;;
11222;SDS011;5668;52.012;8.724;2023-07-24T07:01:04;4.95;;;3.35;;
11222;SDS011;5668;52.012;8.724;2023-07-24T07:03:32;4.43;;;3.60;;
11222;SDS011;5668;52.012;8.724;2023-07-24T07:06:01;4.70;;;3.45;;
11222;SDS011;5668;52.012;8.724;2023-07-24T07:08:29;3.88;;;3.30;;
11222;SDS011;5668;52.012;8.724;2023-07-24T07:10:58;3.83;;;3.45;;
11222;SDS011;5668;52.012;8.724;2023-07-24T07:13:26;3.95;;;3.40;;
11222;SDS011;5668;52.012;8.724;2023-07-24T07:15:53;3.60;;;3.28;;
11222;SDS011;5668;52.012;8.724;2023-07-24T07:18:20;4.65;;;3.80;;
11222;SDS011;5668;52.012;8.724;2023-07-24T07:20:48;3.97;;;3.58;;
11222;SDS011;5668;52.012;8.724;2023-07-24T07:23:17;5.47;;;3.25;;
11222;SDS011;5668;52.012;8.724;2023-07-24T07:25:44;3.90;;;3.28;;
11222;SDS011;5668;52.012;8.724;2023-07-24T07:28:13;3.90;;;3.30;;
11222;SDS011;5668;52.012;8.724;2023-07-24T07:30:42;3.60;;;3.10;;
11222;SDS011;5668;52.012;8.724;2023-07-24T07:33:09;4.50;;;3.50;;
11222;SDS011;5668;52.012;8.724;2023-07-24T07:35:37;6.07;;;3.65;;
11222;SDS011;5668;52.012;8.724;2023-07-24T07:38:04;4.03;;;3.72;;
11222;SDS011;5668;52.012;8.724;2023-07-24T07:40:31;4.80;;;3.95;;
11222;SDS011;5668;52.012;8.724;2023-07-24T07:42:58;4.43;;;3.80;;
11222;SDS011;5668;52.012;8.724;2023-07-24T07:45:27;3.80;;;3.50;;
11222;SDS011;5668;52.012;8.724;2023-07-24T07:47:54;3.92;;;3.35;;
11222;SDS011;5668;52.012;8.724;2023-07-24T07:50:22;3.70;;;3.40;;
11222;SDS011;5668;52.012;8.724;2023-07-24T07:52:49;4.13;;;3.63;;
11222;SDS011;5668;52.012;8.724;2023-07-24T07:55:17;7.20;;;4.18;;
11222;SDS011;5668;52.012;8.724;2023-07-24T07:57:44;4.68;;;4.28;;
11222;SDS011;5668;52.012;8.724;2023-07-24T08:00:12;4.82;;;4.22;;
11222;SDS011;5668;52.012;8.724;2023-07-24T08:02:41;4.85;;;4.38;;
11222;SDS011;5668;52.012;8.724;2023-07-24T08:05:08;5.10;;;4.15;;
11222;SDS011;5668;52.012;8.724;2023-07-24T08:07:36;4.85;;;4.00;;
11222;SDS011;5668;52.012;8.724;2023-07-24T08:10:04;4.57;;;4.15;;
11222;SDS011;5668;52.012;8.724;2023-07-24T08:12:33;4.90;;;4.40;;
11222;SDS011;5668;52.012;8.724;2023-07-24T08:15:00;4.97;;;4.32;;
11222;SDS011;5668;52.012;8.724;2023-07-24T08:17:27;4.22;;;3.92;;
11222;SDS011;5668;52.012;8.724;2023-07-24T08:19:57;5.05;;;3.72;;
11222;SDS011;5668;52.012;8.724;2023-07-24T08:22:24;4.72;;;4.15;;
11222;SDS011;5668;52.012;8.724;2023-07-24T08:24:51;5.60;;;3.80;;
11222;SDS011;5668;52.012;8.724;2023-07-24T08:27:19;6.15;;;3.95;;
11222;SDS011;5668;52.012;8.724;2023-07-24T08:29:46;4.88;;;4.10;;
11222;SDS011;5668;52.012;8.724;2023-07-24T08:32:16;4.40;;;4.00;;
11222;SDS011;5668;52.012;8.724;2023-07-24T08:34:43;5.47;;;4.43;;
11222;SDS011;5668;52.012;8.724;2023-07-24T08:37:12;4.93;;;4.30;;
11222;SDS011;5668;52.012;8.724;2023-07-24T08:39:39;5.40;;;4.35;;
11222;SDS011;5668;52.012;8.724;2023-07-24T08:42:09;5.45;;;4.22;;
11222;SDS011;5668;52.012;8.724;2023-07-24T08:44:37;4.80;;;3.97;;
11222;SDS011;5668;52.012;8.724;2023-07-24T08:47:05;4.60;;;4.20;;
11222;SDS011;5668;52.012;8.724;2023-07-24T08:49:36;4.32;;;3.92;;
11222;SDS011;5668;52.012;8.724;2023-07-24T08:52:05;4.60;;;4.03;;
11222;SDS011;5668;52.012;8.724;2023-07-24T08:54:35;5.38;;;3.90;;
11222;SDS011;5668;52.012;8.724;2023-07-24T08:57:04;4.35;;;3.95;;
11222;SDS011;5668;52.012;8.724;2023-07-24T08:59:33;4.30;;;3.90;;
11222;SDS011;5668;52.012;8.724;2023-07-24T09:02:01;6.10;;;3.97;;
11222;SDS011;5668;52.012;8.724;2023-07-24T09:04:28;5.72;;;4.07;;
11222;SDS011;5668;52.012;8.724;2023-07-24T09:06:56;4.22;;;3.83;;
11222;SDS011;5668;52.012;8.724;2023-07-24T09:09:28;4.47;;;4.07;;
11222;SDS011;5668;52.012;8.724;2023-07-24T09:11:58;4.88;;;4.38;;
11222;SDS011;5668;52.012;8.724;2023-07-24T09:14:26;5.20;;;4.30;;
11222;SDS011;5668;52.012;8.724;2023-07-24T09:17:02;5.15;;;4.65;;
11222;SDS011;5668;52.012;8.724;2023-07-24T09:19:30;5.90;;;4.63;;
11222;SDS011;5668;52.012;8.724;2023-07-24T09:22:07;5.82;;;4.50;;
11222;SDS011;5668;52.012;8.724;2023-07-24T09:24:35;4.65;;;4.20;;
11222;SDS011;5668;52.012;8.724;2023-07-24T09:27:06;4.63;;;4.13;;
11222;SDS011;5668;52.012;8.724;2023-07-24T09:29:34;4.85;;;4.30;;
11222;SDS011;5668;52.012;8.724;2023-07-24T09:32:02;6.47;;;4.25;;
11222;SDS011;5668;52.012;8.724;2023-07-24T09:34:30;5.43;;;4.82;;
11222;SDS011;5668;52.012;8.724;2023-07-24T09:36:58;5.05;;;4.65;;
11222;SDS011;5668;52.012;8.724;2023-07-24T09:39:26;5.75;;;4.85;;
11222;SDS011;5668;52.012;8.724;2023-07-24T09:41:53;4.95;;;4.55;;
11222;SDS011;5668;52.012;8.724;2023-07-24T09:44:31;5.88;;;4.72;;
11222;SDS011;5668;52.012;8.724;2023-07-24T09:46:58;5.32;;;4.57;;
11222;SDS011;5668;52.012;8.724;2023-07-24T09:49:27;5.88;;;4.90;;
11222;SDS011;5668;52.012;8.724;2023-07-24T09:51:54;5.20;;;4.70;;
11222;SDS011;5668;52.012;8.724;2023-07-24T09:54:31;5.70;;;5.20;;
11222;SDS011;5668;52.012;8.724;2023-07-24T09:57:05;5.63;;;4.90;;
11222;SDS011;5668;52.012;8.724;2023-07-24T09:59:36;5.60;;;5.10;;
11222;SDS011;5668;52.012;8.724;2023-07-24T10:02:03;6.70;;;5.28;;
11222;SDS011;5668;52.012;8.724;2023-07-24T10:04:32;6.30;;;5.55;;
11222;SDS011;5668;52.012;8.724;2023-07-24T10:07:00;5.93;;;5.43;;
11222;SDS011;5668;52.012;8.724;2023-07-24T10:09:27;5.50;;;5.10;;
11222;SDS011;5668;52.012;8.724;2023-07-24T10:11:56;5.55;;;5.00;;
11222;SDS011;5668;52.012;8.724;2023-07-24T10:14:23;5.28;;;4.78;;
11222;SDS011;5668;52.012;8.724;2023-07-24T10:16:53;5.07;;;4.55;;
11222;SDS011;5668;52.012;8.724;2023-07-24T10:19:21;5.35;;;4.60;;
11222;SDS011;5668;52.012;8.724;2023-07-24T10:21:49;5.43;;;4.93;;
11222;SDS011;5668;52.012;8.724;2023-07-24T10:24:17;5.55;;;5.05;;
11222;SDS011;5668;52.012;8.724;2023-07-24T10:26:48;5.78;;;5.00;;
11222;SDS011;5668;52.012;8.724;2023-07-24T10:29:20;4.85;;;4.35;;
11222;SDS011;5668;52.012;8.724;2023-07-24T10:31:55;5.43;;;4.05;;
11222;SDS011;5668;52.012;8.724;2023-07-24T10:34:22;4.65;;;4.20;;
11222;SDS011;5668;52.012;8.724;2023-07-24T10:36:49;4.80;;;4.40;;
11222;SDS011;5668;52.012;8.724;2023-07-24T10:39:17;4.65;;;4.25;;
11222;SDS011;5668;52.012;8.724;2023-07-24T10:41:45;5.20;;;4.53;;
11222;SDS011;5668;52.012;8.724;2023-07-24T10:44:12;4.82;;;4.43;;
11222;SDS011;5668;52.012;8.724;2023-07-24T10:46:40;5.07;;;4.68;;
11222;SDS011;5668;52.012;8.724;2023-07-24T10:49:09;5.13;;;4.70;;
11222;SDS011;5668;52.012;8.724;2023-07-24T10:51:37;5.97;;;5.38;;
11222;SDS011;5668;52.012;8.724;2023-07-24T10:54:04;6.03;;;5.25;;
11222;SDS011;5668;52.012;8.724;2023-07-24T10:56:32;5.95;;;5.45;;
11222;SDS011;5668;52.012;8.724;2023-07-24T10:59:02;5.43;;;4.93;;
11222;SDS011;5668;52.012;8.724;2023-07-24T11:01:30;5.72;;;5.22;;
11222;SDS011;5668;52.012;8.724;2023-07-24T11:03:58;5.55;;;5.15;;
11222;SDS011;5668;52.012;8.724;2023-07-24T11:06:28;5.47;;;4.97;;
11222;SDS011;5668;52.012;8.724;2023-07-24T11:08:56;5.57;;;5.05;;
11222;SDS011;5668;52.012;8.724;2023-07-24T11:11:27;5.78;;;5.00;;
11222;SDS011;5668;52.012;8.724;2023-07-24T11:13:55;5.47;;;4.97;;
11222;SDS011;5668;52.012;8.724;2023-07-24T11:16:22;5.55;;;5.05;;
11222;SDS011;5668;52.012;8.724;2023-07-24T11:18:50;6.10;;;5.50;;
11222;SDS011;5668;52.012;8.724;2023-07-24T11:21:18;5.88;;;5.28;;
11222;SDS011;5668;52.012;8.724;2023-07-24T11:23:50;5.13;;;4.72;;
11222;SDS011;5668;52.012;8.724;2023-07-24T11:26:18;4.70;;;4.30;;
11222;SDS011;5668;52.012;8.724;2023-07-24T11:28:46;6.22;;;5.05;;
11222;SDS011;5668;52.012;8.724;2023-07-24T11:31:14;5.15;;;4.63;;
11222;SDS011;5668;52.012;8.724;2023-07-24T11:33:44;4.90;;;4.50;;
11222;SDS011;5668;52.012;8.724;2023-07-24T11:36:12;5.32;;;4.45;;
11222;SDS011;5668;52.012;8.724;2023-07-24T11:38:41;4.72;;;4.32;;
11222;SDS011;5668;52.012;8.724;2023-07-24T11:41:11;4.97;;;4.57;;
11222;SDS011;5668;52.012;8.724;2023-07-24T11:43:44;4.55;;;4.10;;
11222;SDS011;5668;52.012;8.724;2023-07-24T11:46:21;4.80;;;4.13;;
11222;SDS011;5668;52.012;8.724;2023-07-24T11:48:50;5.20;;;4.70;;
11222;SDS011;5668;52.012;8.724;2023-07-24T11:51:18;4.72;;;4.32;;
11222;SDS011;5668;52.012;8.724;2023-07-24T11:53:46;4.35;;;4.05;;
11222;SDS011;5668;52.012;8.724;2023-07-24T11:56:15;5.20;;;4.57;;
11222;SDS011;5668;52.012;8.724;2023-07-24T11:58:43;4.50;;;4.10;;
11222;SDS011;5668;52.012;8.724;2023-07-24T12:01:12;5.00;;;4.50;;
11222;SDS011;5668;52.012;8.724;2023-07-24T12:03:39;5.13;;;4.65;;
11222;SDS011;5668;52.012;8.724;2023-07-24T12:06:13;6.85;;;4.40;;
11222;SDS011;5668;52.012;8.724;2023-07-24T12:08:41;4.65;;;4.07;;
11222;SDS011;5668;52.012;8.724;2023-07-24T12:11:16;4.85;;;4.45;;
11222;SDS011;5668;52.012;8.724;2023-07-24T12:13:44;4.40;;;4.00;;
11222;SDS011;5668;52.012;8.724;2023-07-24T12:16:11;4.47;;;4.07;;
11222;SDS011;5668;52.012;8.724;2023-07-24T12:18:38;2.85;;;2.65;;
11222;SDS011;5668;52.012;8.724;2023-07-24T12:21:06;3.13;;;2.40;;
11222;SDS011;5668;52.012;8.724;2023-07-24T12:23:33;2.47;;;2.33;;
11222;SDS011;5668;52.012;8.724;2023-07-24T12:26:00;2.60;;;2.40;;
11222;SDS011;5668;52.012;8.724;2023-07-24T12:28:28;2.90;;;2.58;;
11222;SDS011;5668;52.012;8.724;2023-07-24T12:30:56;4.22;;;3.30;;
11222;SDS011;5668;52.012;8.724;2023-07-24T12:33:23;2.92;;;2.72;;
11222;SDS011;5668;52.012;8.724;2023-07-24T12:35:50;3.42;;;3.13;;
11222;SDS011;5668;52.012;8.724;2023-07-24T12:38:19;3.90;;;3.60;;
11222;SDS011;5668;52.012;8.724;2023-07-24T12:40:46;4.18;;;3.55;;
11222;SDS011;5668;52.012;8.724;2023-07-24T12:43:14;4.20;;;3.90;;
11222;SDS011;5668;52.012;8.724;2023-07-24T12:45:43;4.13;;;3.83;;
11222;SDS011;5668;52.012;8.724;2023-07-24T12:48:10;4.28;;;3.88;;
11222;SDS011;5668;52.012;8.724;2023-07-24T12:50:37;4.40;;;4.00;;
11222;SDS011;5668;52.012;8.724;2023-07-24T12:53:04;3.83;;;3.50;;
11222;SDS011;5668;52.012;8.724;2023-07-24T12:55:31;4.10;;;3.70;;
11222;SDS011;5668;52.012;8.724;2023-07-24T12:57:58;4.50;;;4.10;;
11222;SDS011;5668;52.012;8.724;2023-07-24T13:00:27;4.50;;;4.10;;
11222;SDS011;5668;52.012;8.724;2023-07-24T13:02:56;3.75;;;3.40;;
11222;SDS011;5668;52.012;8.724;2023-07-24T13:05:23;4.35;;;3.95;;
11222;SDS011;5668;52.012;8.724;2023-07-24T13:07:50;5.50;;;4.05;;
11222;SDS011;5668;52.012;8.724;2023-07-24T13:10:18;4.35;;;3.95;;
11222;SDS011;5668;52.012;8.724;2023-07-24T13:12:48;7.95;;;4.20;;
11222;SDS011;5668;52.012;8.724;2023-07-24T13:15:15;5.95;;;3.95;;
11222;SDS011;5668;52.012;8.724;2023-07-24T13:17:42;3.67;;;3.03;;
11222;SDS011;5668;52.012;8.724;2023-07-24T13:20:11;3.00;;;2.70;;
11222;SDS011;5668;52.012;8.724;2023-07-24T13:22:39;3.22;;;2.72;;
11222;SDS011;5668;52.012;8.724;2023-07-24T13:25:08;2.50;;;2.30;;
11222;SDS011;5668;52.012;8.724;2023-07-24T13:27:35;3.85;;;2.60;;
11222;SDS011;5668;52.012;8.724;2023-07-24T13:30:02;3.55;;;2.00;;
11222;SDS011;5668;52.012;8.724;2023-07-24T13:32:30;2.30;;;2.10;;
11222;SDS011;5668;52.012;8.724;2023-07-24T13:34:57;2.20;;;2.00;;
11222;SDS011;5668;52.012;8.724;2023-07-24T13:37:26;2.20;;;2.00;;
11222;SDS011;5668;52.012;8.724;2023-07-24T13:39:53;4.13;;;2.30;;
11222;SDS011;5668;52.012;8.724;2023-07-24T13:42:20;2.42;;;2.22;;
11222;SDS011;5668;52.012;8.724;2023-07-24T13:44:48;3.30;;;2.60;;
11222;SDS011;5668;52.012;8.724;2023-07-24T13:47:15;2.65;;;2.10;;
11222;SDS011;5668;52.012;8.724;2023-07-24T13:49:43;3.35;;;2.83;;
11222;SDS011;5668;52.012;8.724;2023-07-24T13:52:10;3.00;;;2.75;;
11222;SDS011;5668;52.012;8.724;2023-07-24T13:54:38;3.30;;;2.47;;
11222;SDS011;5668;52.012;8.724;2023-07-24T13:57:05;3.20;;;2.45;;
11222;SDS011;5668;52.012;8.724;2023-07-24T13:59:33;2.45;;;2.25;;
11222;SDS011;5668;52.012;8.724;2023-07-24T14:02:01;2.38;;;2.17;;
11222;SDS011;5668;52.012;8.724;2023-07-24T14:04:27;2.83;;;1.98;;
11222;SDS011;5668;52.012;8.724;2023-07-24T14:06:54;2.65;;;2.20;;
11222;SDS011;5668;52.012;8.724;2023-07-24T14:09:21;2.42;;;1.92;;
11222;SDS011;5668;52.012;8.724;2023-07-24T14:11:50;2.10;;;1.70;;
11222;SDS011;5668;52.012;8.724;2023-07-24T14:14:17;2.50;;;1.88;;
11222;SDS011;5668;52.012;8.724;2023-07-24T14:16:45;2.58;;;1.90;;
11222;SDS011;5668;52.012;8.724;2023-07-24T14:19:12;2.10;;;1.90;;
11222;SDS011;5668;52.012;8.724;2023-07-24T14:21:40;2.00;;;1.80;;
11222;SDS011;5668;52.012;8.724;2023-07-24T14:24:07;2.90;;;2.10;;
11222;SDS011;5668;52.012;8.724;2023-07-24T14:26:34;2.30;;;2.00;;
11222;SDS011;5668;52.012;8.724;2023-07-24T14:29:03;2.20;;;2.00;;
11222;SDS011;5668;52.012;8.724;2023-07-24T14:31:30;2.50;;;1.67;;
11222;SDS011;5668;52.012;8.724;2023-07-24T14:33:58;2.65;;;2.10;;
11222;SDS011;5668;52.012;8.724;2023-07-24T14:36:25;3.97;;;2.60;;
11222;SDS011;5668;52.012;8.724;2023-07-24T14:38:58;2.10;;;1.90;;
11222;SDS011;5668;52.012;8.724;2023-07-24T14:41:26;2.17;;;1.77;;
11222;SDS011;5668;52.012;8.724;2023-07-24T14:43:53;2.35;;;2.00;;
11222;SDS011;5668;52.012;8.724;2023-07-24T14:46:21;2.40;;;2.20;;
11222;SDS011;5668;52.012;8.724;2023-07-24T14:48:49;2.10;;;1.90;;
11222;SDS011;5668;52.012;8.724;2023-07-24T14:51:16;2.42;;;2.10;;
11222;SDS011;5668;52.012;8.724;2023-07-24T14:53:43;3.15;;;2.00;;
11222;SDS011;5668;52.012;8.724;2023-07-24T14:56:10;2.50;;;2.08;;
11222;SDS011;5668;52.012;8.724;2023-07-24T14:58:38;2.00;;;1.80;;
11222;SDS011;5668;52.012;8.724;2023-07-24T15:01:07;2.20;;;2.00;;
11222;SDS011;5668;52.012;8.724;2023-07-24T15:03:35;1.73;;;1.60;;
11222;SDS011;5668;52.012;8.724;2023-07-24T15:06:02;1.80;;;1.67;;